createdAt,value
2023-12-28T00:00:21.878Z,75.22
2023-12-28T00:02:55.555Z,75.28
2023-12-28T00:05:29.319Z,75.34
2023-12-28T00:08:02.933Z,75.36
2023-12-28T00:10:38.228Z,75.33
2023-12-28T00:13:11.694Z,75.36
2023-12-28T00:15:45.413Z,75.44
2023-12-28T00:18:21.496Z,75.44
2023-12-28T00:20:55.233Z,75.47
2023-12-28T00:23:28.807Z,75.48
2023-12-28T00:26:03.284Z,75.51
2023-12-28T00:28:36.990Z,75.56
2023-12-28T00:31:11.903Z,75.55
2023-12-28T00:33:45.918Z,75.50
2023-12-28T00:36:19.597Z,75.49
2023-12-28T00:38:54.574Z,75.50
2023-12-28T00:41:28.200Z,75.43
2023-12-28T00:44:03.214Z,75.49
2023-12-28T00:46:36.900Z,75.44
2023-12-28T00:49:11.982Z,75.37
2023-12-28T00:51:45.842Z,75.25
2023-12-28T00:54:19.551Z,75.30
2023-12-28T00:56:54.249Z,75.28
2023-12-28T00:59:28.733Z,75.26
2023-12-28T01:02:02.291Z,75.35
2023-12-28T01:04:36.043Z,75.37
2023-12-28T01:07:09.803Z,75.47
2023-12-28T01:09:43.581Z,75.45
2023-12-28T01:12:17.162Z,75.48
2023-12-28T01:14:50.928Z,75.48
2023-12-28T01:17:24.564Z,75.47
2023-12-28T01:19:58.283Z,75.44
2023-12-28T01:22:32.048Z,75.42
2023-12-28T01:25:07.086Z,75.42
2023-12-28T01:27:40.856Z,75.44
2023-12-28T01:30:15.341Z,75.42
2023-12-28T01:32:48.876Z,75.45
2023-12-28T01:35:22.644Z,75.52
2023-12-28T01:37:56.359Z,75.46
2023-12-28T01:40:30.196Z,75.46
2023-12-28T01:43:03.800Z,75.48
2023-12-28T01:45:37.436Z,75.49
2023-12-28T01:48:12.559Z,75.50
2023-12-28T01:50:46.620Z,75.54
2023-12-28T01:53:20.818Z,75.48
2023-12-28T01:55:55.686Z,75.42
2023-12-28T01:58:31.197Z,75.34
2023-12-28T02:01:04.890Z,75.37
2023-12-28T02:03:38.998Z,75.37
2023-12-28T02:06:12.991Z,75.45
2023-12-28T02:08:46.806Z,75.46
2023-12-28T02:11:20.774Z,75.46
2023-12-28T02:13:54.789Z,75.36
2023-12-28T02:16:32.187Z,75.36
2023-12-28T02:19:08.939Z,75.41
2023-12-28T02:21:43.575Z,75.42
2023-12-28T02:24:17.323Z,75.47
2023-12-28T02:26:50.876Z,75.49
2023-12-28T02:29:24.456Z,75.52
2023-12-28T02:32:01.979Z,75.52
2023-12-28T02:34:38.540Z,75.56
2023-12-28T02:37:14.467Z,75.49
2023-12-28T02:39:50.821Z,75.59
2023-12-28T02:42:24.893Z,75.66
2023-12-28T02:44:58.590Z,75.73
2023-12-28T02:47:33.215Z,75.82
2023-12-28T02:50:08.416Z,75.87
2023-12-28T02:52:42.026Z,75.91
2023-12-28T02:55:15.841Z,75.97
2023-12-28T02:57:49.860Z,75.89
2023-12-28T03:00:24.185Z,75.95
2023-12-28T03:02:59.399Z,76.04
2023-12-28T03:05:34.135Z,76.03
2023-12-28T03:08:08.497Z,76.07
2023-12-28T03:10:42.016Z,76.10
2023-12-28T03:13:15.469Z,76.14
2023-12-28T03:15:48.966Z,76.12
2023-12-28T03:18:22.720Z,76.08
2023-12-28T03:20:56.505Z,76.01
2023-12-28T03:23:30.119Z,76.01
2023-12-28T03:26:05.597Z,76.02
2023-12-28T03:28:42.648Z,76.12
2023-12-28T03:31:16.732Z,76.17
2023-12-28T03:33:50.463Z,76.17
2023-12-28T03:36:24.765Z,76.24
2023-12-28T03:38:59.558Z,76.25
2023-12-28T03:41:33.161Z,76.35
2023-12-28T03:44:06.908Z,76.32
2023-12-28T03:46:40.860Z,76.38
2023-12-28T03:49:14.537Z,76.42
2023-12-28T03:51:48.252Z,76.44
2023-12-28T03:54:22.483Z,76.47
2023-12-28T03:56:55.842Z,76.52
2023-12-28T03:59:29.727Z,76.52
2023-12-28T04:02:03.619Z,76.55
2023-12-28T04:04:37.273Z,76.54
2023-12-28T04:07:11.448Z,76.54
2023-12-28T04:09:45.005Z,76.55
2023-12-28T04:12:18.738Z,76.53
2023-12-28T04:14:52.273Z,76.54
2023-12-28T04:17:25.880Z,76.54
2023-12-28T04:19:59.500Z,76.56
2023-12-28T04:22:35.406Z,76.54
2023-12-28T04:25:09.950Z,76.54
2023-12-28T04:27:43.995Z,76.53
2023-12-28T04:30:18.421Z,76.50
2023-12-28T04:32:52.345Z,76.55
2023-12-28T04:35:25.911Z,76.56
2023-12-28T04:37:59.522Z,76.53
2023-12-28T04:40:34.781Z,76.59
2023-12-28T04:43:08.797Z,76.63
2023-12-28T04:45:42.384Z,76.70
2023-12-28T04:48:16.348Z,76.78
2023-12-28T04:50:50.430Z,76.72
2023-12-28T04:53:24.054Z,76.70
2023-12-28T04:55:59.186Z,76.72
2023-12-28T04:58:32.794Z,76.70
2023-12-28T05:01:07.155Z,76.70
2023-12-28T05:03:40.834Z,76.77
2023-12-28T05:06:14.390Z,76.78
2023-12-28T05:08:48.045Z,76.79
2023-12-28T05:11:21.505Z,76.81
2023-12-28T05:13:55.765Z,76.89
2023-12-28T05:16:29.402Z,76.98
2023-12-28T05:19:03.170Z,77.03
2023-12-28T05:21:37.012Z,77.02
2023-12-28T05:24:10.735Z,77.07
2023-12-28T05:26:44.278Z,77.07
2023-12-28T05:29:17.901Z,76.99
2023-12-28T05:31:51.525Z,76.93
2023-12-28T05:34:25.365Z,76.95
2023-12-28T05:36:58.954Z,76.94
2023-12-28T05:39:32.705Z,76.90
2023-12-28T05:42:06.944Z,76.71
2023-12-28T05:44:40.615Z,76.76
2023-12-28T05:47:14.301Z,76.72
2023-12-28T05:49:48.960Z,76.77
2023-12-28T05:52:22.825Z,76.79
2023-12-28T05:54:58.048Z,76.80
2023-12-28T05:57:32.496Z,76.77
2023-12-28T06:00:07.985Z,76.64
2023-12-28T06:02:43.408Z,76.57
2023-12-28T06:05:17.148Z,76.52
2023-12-28T06:07:50.619Z,76.38
2023-12-28T06:10:25.351Z,76.29
2023-12-28T06:12:59.208Z,76.23
2023-12-28T06:15:34.096Z,76.16
2023-12-28T06:18:08.458Z,76.12
2023-12-28T06:20:42.049Z,76.11
2023-12-28T06:23:15.800Z,76.08
2023-12-28T06:25:49.506Z,76.09
2023-12-28T06:28:23.178Z,76.08
2023-12-28T06:30:58.304Z,76.04
2023-12-28T06:33:32.868Z,75.97
2023-12-28T06:36:11.162Z,75.93
2023-12-28T06:38:44.764Z,75.91
2023-12-28T06:41:18.393Z,75.88
2023-12-28T06:43:51.932Z,75.67
2023-12-28T06:46:25.558Z,75.64
2023-12-28T06:49:00.855Z,75.51
2023-12-28T06:51:34.990Z,75.43
2023-12-28T06:54:08.691Z,75.34
2023-12-28T06:56:42.397Z,75.26
2023-12-28T06:59:16.638Z,75.29
2023-12-28T07:01:50.959Z,75.28
2023-12-28T07:04:26.776Z,75.35
2023-12-28T07:07:00.338Z,75.42
2023-12-28T07:09:33.949Z,75.36
2023-12-28T07:12:09.184Z,75.25
2023-12-28T07:14:42.522Z,75.03
2023-12-28T07:17:17.710Z,75.02
2023-12-28T07:19:51.500Z,74.99
2023-12-28T07:22:25.126Z,74.98
2023-12-28T07:24:58.669Z,75.07
2023-12-28T07:27:33.911Z,75.04
2023-12-28T07:30:10.054Z,74.95
2023-12-28T07:32:43.798Z,74.99
2023-12-28T07:35:17.847Z,74.87
2023-12-28T07:37:51.695Z,74.62
2023-12-28T07:40:25.159Z,74.44
2023-12-28T07:42:58.879Z,74.58
2023-12-28T07:45:33.353Z,74.16
2023-12-28T07:48:09.099Z,73.83
2023-12-28T07:50:42.755Z,73.66
2023-12-28T07:53:16.353Z,73.45
2023-12-28T07:55:50.084Z,73.44
2023-12-28T07:58:23.612Z,73.44
2023-12-28T08:00:57.359Z,73.26
2023-12-28T08:03:30.904Z,72.88
2023-12-28T08:06:04.672Z,72.94
2023-12-28T08:08:38.659Z,72.82
2023-12-28T08:11:13.424Z,72.41
2023-12-28T08:13:48.005Z,72.53
2023-12-28T08:16:21.706Z,72.37
2023-12-28T08:18:55.634Z,72.20
2023-12-28T08:21:29.334Z,72.02
2023-12-28T08:24:02.681Z,71.86
2023-12-28T08:26:36.206Z,71.93
2023-12-28T08:29:10.160Z,71.80
2023-12-28T08:31:47.980Z,72.06
2023-12-28T08:34:18.644Z,72.13
2023-12-28T08:36:53.602Z,72.21
2023-12-28T08:39:27.258Z,72.22
2023-12-28T08:42:01.113Z,72.24
2023-12-28T08:44:35.099Z,72.45
2023-12-28T08:47:09.323Z,72.51
2023-12-28T08:49:43.299Z,72.46
2023-12-28T08:52:17.089Z,72.63
2023-12-28T08:54:50.709Z,72.48
2023-12-28T08:57:35.381Z,72.61
2023-12-28T09:00:01.459Z,72.67
2023-12-28T09:02:37.382Z,72.85
2023-12-28T09:05:12.026Z,72.88
2023-12-28T09:07:45.681Z,72.91
2023-12-28T09:10:19.881Z,72.65
2023-12-28T09:12:53.684Z,72.61
2023-12-28T09:15:27.423Z,72.83
2023-12-28T09:18:01.818Z,73.04
2023-12-28T09:20:36.557Z,73.10
2023-12-28T09:23:11.184Z,73.28
2023-12-28T09:25:45.111Z,73.32
2023-12-28T09:28:18.585Z,73.35
2023-12-28T09:30:52.332Z,73.26
2023-12-28T09:33:26.378Z,73.08
2023-12-28T09:36:01.050Z,72.55
2023-12-28T09:38:34.768Z,72.20
2023-12-28T09:41:13.143Z,71.87
2023-12-28T09:43:54.259Z,71.20
2023-12-28T09:46:28.660Z,70.88
2023-12-28T09:49:02.531Z,70.64
2023-12-28T09:51:36.882Z,70.94
2023-12-28T09:54:11.398Z,70.87
2023-12-28T09:56:45.737Z,70.42
2023-12-28T09:59:19.978Z,69.74
2023-12-28T10:01:54.124Z,68.67
2023-12-28T10:04:30.049Z,69.20
2023-12-28T10:07:03.928Z,69.27
2023-12-28T10:09:37.743Z,69.58
2023-12-28T10:12:12.149Z,69.35
2023-12-28T10:14:46.646Z,69.51
2023-12-28T10:17:20.416Z,69.16
2023-12-28T10:19:57.100Z,69.18
2023-12-28T10:22:31.762Z,69.04
2023-12-28T10:25:06.767Z,69.39
2023-12-28T10:27:43.525Z,69.72
2023-12-28T10:30:17.823Z,69.80
2023-12-28T10:32:52.059Z,69.55
2023-12-28T10:35:25.912Z,69.61
2023-12-28T10:38:03.548Z,69.82
2023-12-28T10:40:38.036Z,69.83
2023-12-28T10:43:13.807Z,69.31
2023-12-28T10:45:51.391Z,68.75
2023-12-28T10:48:29.142Z,68.49
2023-12-28T10:51:02.718Z,68.43
2023-12-28T10:53:40.277Z,68.29
2023-12-28T10:56:19.595Z,68.03
2023-12-28T10:58:55.501Z,68.11
2023-12-28T11:01:32.833Z,68.19
2023-12-28T11:04:10.854Z,68.27
2023-12-28T11:06:47.640Z,67.89
2023-12-28T11:09:23.094Z,67.46
2023-12-28T11:12:01.128Z,68.02
2023-12-28T11:14:36.724Z,68.27
2023-12-28T11:17:11.792Z,68.31
2023-12-28T11:19:47.211Z,67.59
2023-12-28T11:22:22.078Z,67.28
2023-12-28T11:24:56.892Z,67.66
2023-12-28T11:27:38.256Z,67.83
2023-12-28T11:30:15.536Z,67.32
2023-12-28T11:32:49.501Z,67.13
2023-12-28T11:35:23.219Z,67.10
2023-12-28T11:37:58.274Z,67.21
2023-12-28T11:40:33.172Z,67.14
2023-12-28T11:43:08.800Z,67.15
2023-12-28T11:45:44.075Z,67.07
2023-12-28T11:48:26.693Z,66.81
2023-12-28T11:51:01.388Z,66.60
2023-12-28T11:53:36.799Z,66.64
2023-12-28T11:56:12.315Z,66.57
2023-12-28T11:58:47.334Z,66.79
2023-12-28T12:01:21.203Z,66.66
2023-12-28T12:03:55.154Z,66.80
2023-12-28T12:06:28.917Z,66.71
2023-12-28T12:09:02.389Z,66.56
2023-12-28T12:11:36.132Z,66.13
2023-12-28T12:14:13.487Z,65.91
2023-12-28T12:16:48.539Z,66.32
2023-12-28T12:19:22.469Z,66.65
2023-12-28T12:21:56.866Z,66.82
2023-12-28T12:24:30.319Z,66.91
2023-12-28T12:27:05.687Z,67.28
2023-12-28T12:29:39.195Z,67.53
2023-12-28T12:32:13.466Z,67.82
2023-12-28T12:34:47.147Z,68.12
2023-12-28T12:37:20.958Z,68.18
2023-12-28T12:39:55.522Z,68.19
2023-12-28T12:42:29.206Z,68.19
2023-12-28T12:45:03.488Z,68.09
2023-12-28T12:47:37.770Z,67.76
2023-12-28T12:50:13.634Z,67.57
2023-12-28T12:52:47.602Z,67.45
2023-12-28T12:55:22.065Z,66.89
2023-12-28T12:57:57.443Z,66.37
2023-12-28T13:00:31.391Z,65.55
2023-12-28T13:03:05.096Z,65.52
2023-12-28T13:05:39.368Z,65.29
2023-12-28T13:08:12.807Z,65.02
2023-12-28T13:10:46.505Z,64.85
2023-12-28T13:13:20.326Z,64.90
2023-12-28T13:15:54.201Z,64.92
2023-12-28T13:18:27.890Z,65.01
2023-12-28T13:21:01.610Z,65.17
2023-12-28T13:23:35.135Z,65.21
2023-12-28T13:26:08.936Z,65.53
2023-12-28T13:28:43.867Z,65.61
2023-12-28T13:31:20.005Z,65.48
2023-12-28T13:33:54.028Z,65.47
2023-12-28T13:36:29.854Z,65.44
2023-12-28T13:39:03.924Z,65.39
2023-12-28T13:41:37.625Z,65.18
2023-12-28T13:44:13.445Z,65.01
2023-12-28T13:46:47.365Z,64.73
2023-12-28T13:49:21.199Z,64.92
2023-12-28T13:51:54.875Z,64.83
2023-12-28T13:54:29.522Z,64.60
2023-12-28T13:57:02.897Z,64.41
2023-12-28T13:59:36.350Z,64.44
2023-12-28T14:02:09.788Z,64.61
2023-12-28T14:04:43.419Z,64.74
2023-12-28T14:07:17.702Z,64.92
2023-12-28T14:09:51.294Z,65.04
2023-12-28T14:12:25.581Z,65.02
2023-12-28T14:14:59.831Z,64.51
2023-12-28T14:17:35.258Z,64.49
2023-12-28T14:20:12.917Z,64.77
2023-12-28T14:22:48.366Z,64.58
2023-12-28T14:25:23.879Z,64.24
2023-12-28T14:27:59.031Z,63.69
2023-12-28T14:30:34.285Z,63.63
2023-12-28T14:33:09.862Z,63.63
2023-12-28T14:35:47.423Z,63.07
2023-12-28T14:38:20.053Z,63.05
2023-12-28T14:40:53.789Z,63.35
2023-12-28T14:43:27.605Z,63.25
2023-12-28T14:46:01.583Z,63.26
2023-12-28T14:48:35.742Z,63.19
2023-12-28T14:51:09.335Z,62.86
2023-12-28T14:53:43.018Z,63.23
2023-12-28T14:56:16.853Z,63.34
2023-12-28T14:58:50.838Z,63.22
2023-12-28T15:01:26.795Z,63.21
2023-12-28T15:04:03.468Z,63.31
2023-12-28T15:06:37.291Z,63.28
2023-12-28T15:09:11.307Z,63.24
2023-12-28T15:11:49.066Z,63.33
2023-12-28T15:14:23.639Z,63.31
2023-12-28T15:16:58.905Z,63.38
2023-12-28T15:19:34.059Z,63.10
2023-12-28T15:22:09.337Z,63.35
2023-12-28T15:24:44.873Z,63.58
2023-12-28T15:27:18.749Z,63.74
2023-12-28T15:29:52.631Z,63.87
2023-12-28T15:32:26.534Z,64.01
2023-12-28T15:35:02.374Z,63.73
2023-12-28T15:37:35.574Z,63.65
2023-12-28T15:40:11.584Z,63.50
2023-12-28T15:42:47.022Z,63.47
2023-12-28T15:45:20.844Z,63.25
2023-12-28T15:47:54.872Z,63.25
2023-12-28T15:50:28.650Z,62.96
2023-12-28T15:53:02.329Z,63.08
2023-12-28T15:55:35.894Z,63.01
2023-12-28T15:58:09.733Z,63.23
2023-12-28T16:00:44.845Z,63.30
2023-12-28T16:03:18.448Z,63.44
2023-12-28T16:05:52.431Z,63.57
2023-12-28T16:08:25.900Z,63.67
2023-12-28T16:11:01.069Z,63.67
2023-12-28T16:13:38.403Z,63.68
2023-12-28T16:16:14.344Z,63.69
2023-12-28T16:18:54.581Z,63.78
2023-12-28T16:21:31.535Z,64.02
2023-12-28T16:24:05.359Z,64.31
2023-12-28T16:26:43.465Z,64.31
2023-12-28T16:29:17.169Z,64.30
2023-12-28T16:31:51.618Z,64.30
2023-12-28T16:34:25.427Z,64.32
2023-12-28T16:36:59.312Z,64.52
2023-12-28T16:39:33.210Z,64.67
2023-12-28T16:42:07.986Z,64.77
2023-12-28T16:44:44.874Z,64.81
2023-12-28T16:47:18.643Z,64.81
2023-12-28T16:49:52.430Z,64.80
2023-12-28T16:52:26.197Z,64.77
2023-12-28T16:55:00.093Z,64.68
2023-12-28T16:57:35.336Z,64.71
2023-12-28T17:00:12.795Z,64.83
2023-12-28T17:02:46.591Z,64.84
2023-12-28T17:05:23.860Z,64.63
2023-12-28T17:07:58.514Z,64.67
2023-12-28T17:10:35.245Z,64.57
2023-12-28T17:13:11.790Z,64.53
2023-12-28T17:15:46.937Z,64.55
2023-12-28T17:18:24.398Z,64.59
2023-12-28T17:20:58.618Z,64.70
2023-12-28T17:23:38.845Z,64.59
2023-12-28T17:26:15.578Z,64.67
2023-12-28T17:28:52.399Z,64.92
2023-12-28T17:31:29.084Z,64.92
2023-12-28T17:34:04.248Z,64.97
2023-12-28T17:36:39.468Z,64.94
2023-12-28T17:39:14.586Z,64.81
2023-12-28T17:41:50.182Z,64.51
2023-12-28T17:44:26.853Z,64.52
2023-12-28T17:47:02.860Z,64.65
2023-12-28T17:49:39.374Z,64.77
2023-12-28T17:52:15.627Z,64.92
2023-12-28T17:54:49.305Z,64.79
2023-12-28T17:57:23.159Z,64.85
2023-12-28T17:59:57.159Z,64.85
2023-12-28T18:02:30.738Z,65.08
2023-12-28T18:05:05.016Z,65.16
2023-12-28T18:07:39.314Z,65.06
2023-12-28T18:10:13.453Z,65.09
2023-12-28T18:12:47.392Z,64.98
2023-12-28T18:15:21.224Z,65.13
2023-12-28T18:17:55.069Z,65.32
2023-12-28T18:20:28.790Z,65.37
2023-12-28T18:23:02.520Z,65.28
2023-12-28T18:25:49.390Z,65.03
2023-12-28T18:28:23.781Z,65.10
2023-12-28T18:30:57.800Z,65.19
2023-12-28T18:33:32.450Z,65.28
2023-12-28T18:36:09.985Z,65.17
2023-12-28T18:38:43.491Z,65.38
2023-12-28T18:41:17.258Z,65.30
2023-12-28T18:43:51.140Z,65.32
2023-12-28T18:46:26.064Z,65.38
2023-12-28T18:49:01.352Z,65.43
2023-12-28T18:51:34.982Z,65.60
2023-12-28T18:54:08.506Z,65.73
2023-12-28T18:56:42.090Z,65.75
2023-12-28T18:59:15.803Z,65.78
2023-12-28T19:01:50.845Z,65.76
2023-12-28T19:04:25.044Z,65.80
2023-12-28T19:06:59.255Z,65.81
2023-12-28T19:09:32.848Z,65.79
2023-12-28T19:12:08.781Z,65.84
2023-12-28T19:14:44.817Z,65.87
2023-12-28T19:17:18.316Z,65.93
2023-12-28T19:19:53.133Z,65.92
2023-12-28T19:22:27.428Z,65.84
2023-12-28T19:25:01.336Z,65.88
2023-12-28T19:27:36.344Z,65.91
2023-12-28T19:30:13.431Z,65.96
2023-12-28T19:32:47.929Z,65.96
2023-12-28T19:35:21.755Z,66.00
2023-12-28T19:37:56.485Z,65.94
2023-12-28T19:40:30.149Z,66.18
2023-12-28T19:43:04.123Z,66.59
2023-12-28T19:45:37.730Z,66.90
2023-12-28T19:48:12.161Z,66.92
2023-12-28T19:50:46.244Z,66.94
2023-12-28T19:53:20.121Z,66.87
2023-12-28T19:55:54.060Z,66.82
2023-12-28T19:58:27.670Z,66.79
2023-12-28T20:01:01.385Z,66.77
2023-12-28T20:03:35.589Z,66.79
2023-12-28T20:06:11.506Z,66.84
2023-12-28T20:08:47.227Z,66.99
2023-12-28T20:11:21.966Z,67.05
2023-12-28T20:13:55.866Z,67.13
2023-12-28T20:16:30.365Z,67.14
2023-12-28T20:19:04.770Z,67.20
2023-12-28T20:21:40.224Z,67.20
2023-12-28T20:24:14.291Z,67.19
2023-12-28T20:26:48.336Z,67.18
2023-12-28T20:29:22.737Z,67.20
2023-12-28T20:31:57.192Z,67.24
2023-12-28T20:34:31.051Z,67.16
2023-12-28T20:37:04.952Z,67.14
2023-12-28T20:39:38.636Z,67.18
2023-12-28T20:42:13.082Z,67.24
2023-12-28T20:44:46.688Z,67.27
2023-12-28T20:47:21.626Z,67.29
2023-12-28T20:49:56.394Z,67.31
2023-12-28T20:52:30.030Z,67.25
2023-12-28T20:55:04.039Z,67.23
2023-12-28T20:57:37.891Z,67.24
2023-12-28T21:00:15.236Z,67.18
2023-12-28T21:02:48.881Z,67.13
2023-12-28T21:05:22.886Z,67.14
2023-12-28T21:07:56.670Z,67.16
2023-12-28T21:10:30.492Z,67.16
2023-12-28T21:13:05.470Z,67.15
2023-12-28T21:15:39.217Z,67.18
2023-12-28T21:18:19.669Z,67.18
2023-12-28T21:21:02.369Z,67.26
2023-12-28T21:23:24.665Z,67.29
2023-12-28T21:25:58.214Z,67.32
2023-12-28T21:28:31.809Z,67.40
2023-12-28T21:31:06.241Z,67.44
2023-12-28T21:33:41.786Z,67.50
2023-12-28T21:36:15.400Z,67.45
2023-12-28T21:38:49.019Z,67.42
2023-12-28T21:41:22.668Z,67.47
2023-12-28T21:43:56.232Z,67.59
2023-12-28T21:46:30.130Z,67.61
2023-12-28T21:49:05.339Z,67.59
2023-12-28T21:51:40.491Z,67.60
2023-12-28T21:54:14.067Z,67.67
2023-12-28T21:56:47.754Z,67.69
2023-12-28T21:59:22.918Z,67.67
2023-12-28T22:01:56.922Z,67.73
2023-12-28T22:04:30.744Z,67.68
2023-12-28T22:07:04.292Z,67.72
2023-12-28T22:09:38.227Z,67.79
2023-12-28T22:12:12.093Z,67.84
2023-12-28T22:14:45.436Z,67.94
2023-12-28T22:17:19.316Z,68.02
2023-12-28T22:19:53.332Z,68.03
2023-12-28T22:22:27.005Z,67.92
2023-12-28T22:25:00.519Z,67.96
2023-12-28T22:27:34.564Z,68.01
2023-12-28T22:30:10.328Z,68.05
2023-12-28T22:32:44.074Z,68.04
2023-12-28T22:35:18.315Z,67.96
2023-12-28T22:37:51.976Z,68.00
2023-12-28T22:40:25.919Z,67.96
2023-12-28T22:42:59.880Z,67.96
2023-12-28T22:45:33.756Z,67.95
2023-12-28T22:48:08.924Z,67.97
2023-12-28T22:50:42.363Z,68.00
2023-12-28T22:53:15.846Z,67.99
2023-12-28T22:55:49.468Z,67.94
2023-12-28T22:58:22.851Z,67.85
2023-12-28T23:00:56.936Z,67.81
2023-12-28T23:03:30.797Z,67.69
2023-12-28T23:06:04.741Z,67.62
2023-12-28T23:08:38.300Z,67.58
2023-12-28T23:11:11.785Z,67.62
2023-12-28T23:13:46.278Z,67.70
2023-12-28T23:16:19.928Z,67.82
2023-12-28T23:18:53.896Z,67.84
2023-12-28T23:21:27.274Z,67.79
2023-12-28T23:24:00.620Z,67.79
2023-12-28T23:26:34.334Z,67.80
2023-12-28T23:29:07.983Z,67.86
2023-12-28T23:31:41.648Z,67.90
2023-12-28T23:34:22.484Z,67.96
2023-12-28T23:36:50.730Z,67.96
2023-12-28T23:39:24.209Z,67.88
2023-12-28T23:41:58.033Z,67.88
2023-12-28T23:44:31.691Z,67.91
2023-12-28T23:47:05.479Z,67.88
2023-12-28T23:49:39.161Z,68.03
2023-12-28T23:52:12.679Z,68.09
2023-12-28T23:54:46.373Z,68.07
2023-12-28T23:57:19.923Z,68.02
2023-12-28T23:59:53.920Z,67.98
